sensor_id;sensor_type;location;lat;lon;timestamp;temperature;humidity
17178;DHT22;8704;52.006;4.374;2024-02-23T00:01:09;6.90;99.90
17178;DHT22;8704;52.006;4.374;2024-02-23T00:03:38;6.30;99.90
17178;DHT22;8704;52.006;4.374;2024-02-23T00:06:07;5.70;99.90
17178;DHT22;8704;52.006;4.374;2024-02-23T00:08:39;6.30;99.90
17178;DHT22;8704;52.006;4.374;2024-02-23T00:11:08;6.30;99.90
17178;DHT22;8704;52.006;4.374;2024-02-23T00:13:36;6.30;99.90
17178;DHT22;8704;52.006;4.374;2024-02-23T00:16:05;6.30;99.90
17178;DHT22;8704;52.006;4.374;2024-02-23T00:18:33;6.30;99.90
17178;DHT22;8704;52.006;4.374;2024-02-23T00:21:01;6.30;99.90
17178;DHT22;8704;52.006;4.374;2024-02-23T00:23:29;6.30;99.90
17178;DHT22;8704;52.006;4.374;2024-02-23T00:25:58;6.30;99.90
17178;DHT22;8704;52.006;4.374;2024-02-23T00:28:27;6.20;99.90
17178;DHT22;8704;52.006;4.374;2024-02-23T00:30:55;6.10;99.90
17178;DHT22;8704;52.006;4.374;2024-02-23T00:33:23;6.30;99.90
17178;DHT22;8704;52.006;4.374;2024-02-23T00:35:51;6.60;99.90
17178;DHT22;8704;52.006;4.374;2024-02-23T00:38:19;6.30;99.90
17178;DHT22;8704;52.006;4.374;2024-02-23T00:40:47;6.30;99.90
17178;DHT22;8704;52.006;4.374;2024-02-23T00:43:18;6.10;99.90
17178;DHT22;8704;52.006;4.374;2024-02-23T00:45:46;6.40;99.90
17178;DHT22;8704;52.006;4.374;2024-02-23T00:48:15;6.30;99.90
17178;DHT22;8704;52.006;4.374;2024-02-23T00:50:43;6.40;80.00
17178;DHT22;8704;52.006;4.374;2024-02-23T00:53:11;7.90;99.90
17178;DHT22;8704;52.006;4.374;2024-02-23T00:55:39;5.70;99.90
17178;DHT22;8704;52.006;4.374;2024-02-23T00:58:08;6.50;99.90
17178;DHT22;8704;52.006;4.374;2024-02-23T01:00:37;5.70;99.90
17178;DHT22;8704;52.006;4.374;2024-02-23T01:03:05;5.60;99.90
17178;DHT22;8704;52.006;4.374;2024-02-23T01:05:33;6.10;99.90
17178;DHT22;8704;52.006;4.374;2024-02-23T01:08:01;6.00;99.90
17178;DHT22;8704;52.006;4.374;2024-02-23T01:10:30;5.90;99.90
17178;DHT22;8704;52.006;4.374;2024-02-23T01:12:58;5.90;99.90
17178;DHT22;8704;52.006;4.374;2024-02-23T01:15:26;5.80;99.90
17178;DHT22;8704;52.006;4.374;2024-02-23T01:17:55;6.10;99.90
17178;DHT22;8704;52.006;4.374;2024-02-23T01:20:24;6.10;99.90
17178;DHT22;8704;52.006;4.374;2024-02-23T01:22:52;5.90;99.90
17178;DHT22;8704;52.006;4.374;2024-02-23T01:25:20;5.70;99.90
17178;DHT22;8704;52.006;4.374;2024-02-23T01:27:48;5.80;99.90
17178;DHT22;8704;52.006;4.374;2024-02-23T01:30:17;5.20;99.90
17178;DHT22;8704;52.006;4.374;2024-02-23T01:32:45;5.90;99.90
17178;DHT22;8704;52.006;4.374;2024-02-23T01:35:15;5.40;99.90
17178;DHT22;8704;52.006;4.374;2024-02-23T01:37:43;5.80;99.90
17178;DHT22;8704;52.006;4.374;2024-02-23T01:40:11;5.70;99.90
17178;DHT22;8704;52.006;4.374;2024-02-23T01:42:40;5.70;99.90
17178;DHT22;8704;52.006;4.374;2024-02-23T01:45:08;5.60;99.90
17178;DHT22;8704;52.006;4.374;2024-02-23T01:47:36;5.60;99.90
17178;DHT22;8704;52.006;4.374;2024-02-23T01:50:06;6.90;99.90
17178;DHT22;8704;52.006;4.374;2024-02-23T01:52:37;5.60;99.90
17178;DHT22;8704;52.006;4.374;2024-02-23T01:55:05;5.60;99.90
17178;DHT22;8704;52.006;4.374;2024-02-23T01:57:34;5.60;99.90
17178;DHT22;8704;52.006;4.374;2024-02-23T02:00:17;5.60;99.90
17178;DHT22;8704;52.006;4.374;2024-02-23T02:02:47;5.60;99.90
17178;DHT22;8704;52.006;4.374;2024-02-23T02:05:15;5.60;99.90
17178;DHT22;8704;52.006;4.374;2024-02-23T02:07:46;5.60;99.90
17178;DHT22;8704;52.006;4.374;2024-02-23T02:10:15;5.50;99.90
17178;DHT22;8704;52.006;4.374;2024-02-23T02:12:43;5.50;99.90
17178;DHT22;8704;52.006;4.374;2024-02-23T02:15:11;6.60;99.90
17178;DHT22;8704;52.006;4.374;2024-02-23T02:17:39;5.70;99.90
17178;DHT22;8704;52.006;4.374;2024-02-23T02:20:11;5.30;99.90
17178;DHT22;8704;52.006;4.374;2024-02-23T02:22:40;5.50;99.90
17178;DHT22;8704;52.006;4.374;2024-02-23T02:25:09;5.60;99.90
17178;DHT22;8704;52.006;4.374;2024-02-23T02:27:37;6.90;99.90
17178;DHT22;8704;52.006;4.374;2024-02-23T02:30:06;5.30;99.90
17178;DHT22;8704;52.006;4.374;2024-02-23T02:32:35;5.70;1.00
17178;DHT22;8704;52.006;4.374;2024-02-23T02:35:05;5.50;1.00
17178;DHT22;8704;52.006;4.374;2024-02-23T02:37:34;5.60;99.90
17178;DHT22;8704;52.006;4.374;2024-02-23T02:40:03;5.60;99.90
17178;DHT22;8704;52.006;4.374;2024-02-23T02:42:33;5.60;99.90
17178;DHT22;8704;52.006;4.374;2024-02-23T02:45:01;5.60;99.90
17178;DHT22;8704;52.006;4.374;2024-02-23T02:47:30;5.60;99.90
17178;DHT22;8704;52.006;4.374;2024-02-23T02:49:58;5.60;99.90
17178;DHT22;8704;52.006;4.374;2024-02-23T02:52:26;5.20;99.90
17178;DHT22;8704;52.006;4.374;2024-02-23T02:54:55;5.60;99.90
17178;DHT22;8704;52.006;4.374;2024-02-23T02:57:23;5.50;99.90
17178;DHT22;8704;52.006;4.374;2024-02-23T02:59:52;5.20;99.90
17178;DHT22;8704;52.006;4.374;2024-02-23T03:02:20;6.30;99.90
17178;DHT22;8704;52.006;4.374;2024-02-23T03:04:49;5.60;99.90
17178;DHT22;8704;52.006;4.374;2024-02-23T03:07:17;5.60;99.90
17178;DHT22;8704;52.006;4.374;2024-02-23T03:09:45;5.60;99.90
17178;DHT22;8704;52.006;4.374;2024-02-23T03:12:13;5.50;99.90
17178;DHT22;8704;52.006;4.374;2024-02-23T03:14:41;5.50;99.90
17178;DHT22;8704;52.006;4.374;2024-02-23T03:17:11;5.40;99.90
17178;DHT22;8704;52.006;4.374;2024-02-23T03:19:39;6.80;99.90
17178;DHT22;8704;52.006;4.374;2024-02-23T03:22:07;5.30;1.00
17178;DHT22;8704;52.006;4.374;2024-02-23T03:24:35;5.40;1.00
17178;DHT22;8704;52.006;4.374;2024-02-23T03:27:04;5.50;1.00
17178;DHT22;8704;52.006;4.374;2024-02-23T03:29:32;5.50;1.00
17178;DHT22;8704;52.006;4.374;2024-02-23T03:32:00;6.60;1.00
17178;DHT22;8704;52.006;4.374;2024-02-23T03:34:30;5.30;1.00
17178;DHT22;8704;52.006;4.374;2024-02-23T03:36:58;6.10;1.00
17178;DHT22;8704;52.006;4.374;2024-02-23T03:39:29;5.40;1.00
17178;DHT22;8704;52.006;4.374;2024-02-23T03:41:58;5.40;1.00
17178;DHT22;8704;52.006;4.374;2024-02-23T03:44:26;4.80;1.00
17178;DHT22;8704;52.006;4.374;2024-02-23T03:46:55;5.40;1.00
17178;DHT22;8704;52.006;4.374;2024-02-23T03:49:23;5.30;1.00
17178;DHT22;8704;52.006;4.374;2024-02-23T03:51:53;5.30;1.00
17178;DHT22;8704;52.006;4.374;2024-02-23T03:54:21;5.20;1.00
17178;DHT22;8704;52.006;4.374;2024-02-23T03:56:49;5.50;1.00
17178;DHT22;8704;52.006;4.374;2024-02-23T03:59:17;5.20;1.00
17178;DHT22;8704;52.006;4.374;2024-02-23T04:01:45;5.20;1.00
17178;DHT22;8704;52.006;4.374;2024-02-23T04:04:13;5.40;1.00
17178;DHT22;8704;52.006;4.374;2024-02-23T04:06:41;5.20;1.00
17178;DHT22;8704;52.006;4.374;2024-02-23T04:09:11;6.50;1.00
17178;DHT22;8704;52.006;4.374;2024-02-23T04:11:39;5.10;1.00
17178;DHT22;8704;52.006;4.374;2024-02-23T04:14:07;5.10;1.00
17178;DHT22;8704;52.006;4.374;2024-02-23T04:16:35;5.00;1.00
17178;DHT22;8704;52.006;4.374;2024-02-23T04:19:03;5.10;1.00
17178;DHT22;8704;52.006;4.374;2024-02-23T04:21:31;5.10;40.80
17178;DHT22;8704;52.006;4.374;2024-02-23T04:23:59;4.90;99.90
17178;DHT22;8704;52.006;4.374;2024-02-23T04:26:29;6.30;99.90
17178;DHT22;8704;52.006;4.374;2024-02-23T04:28:57;5.10;99.90
17178;DHT22;8704;52.006;4.374;2024-02-23T04:31:25;6.30;99.90
17178;DHT22;8704;52.006;4.374;2024-02-23T04:33:53;5.10;99.90
17178;DHT22;8704;52.006;4.374;2024-02-23T04:36:21;5.30;99.90
17178;DHT22;8704;52.006;4.374;2024-02-23T04:38:49;5.20;99.90
17178;DHT22;8704;52.006;4.374;2024-02-23T04:41:20;5.20;99.90
17178;DHT22;8704;52.006;4.374;2024-02-23T04:43:50;5.20;1.00
17178;DHT22;8704;52.006;4.374;2024-02-23T04:46:19;5.20;1.00
17178;DHT22;8704;52.006;4.374;2024-02-23T04:48:47;5.20;99.90
17178;DHT22;8704;52.006;4.374;2024-02-23T04:51:15;5.40;99.90
17178;DHT22;8704;52.006;4.374;2024-02-23T04:53:43;5.30;99.90
17178;DHT22;8704;52.006;4.374;2024-02-23T04:56:11;5.00;99.90
17178;DHT22;8704;52.006;4.374;2024-02-23T04:58:39;4.80;99.90
17178;DHT22;8704;52.006;4.374;2024-02-23T05:01:10;5.20;1.00
17178;DHT22;8704;52.006;4.374;2024-02-23T05:03:38;5.20;1.00
17178;DHT22;8704;52.006;4.374;2024-02-23T05:06:06;5.20;1.00
17178;DHT22;8704;52.006;4.374;2024-02-23T05:08:34;5.20;99.90
17178;DHT22;8704;52.006;4.374;2024-02-23T05:11:03;5.20;99.90
17178;DHT22;8704;52.006;4.374;2024-02-23T05:13:31;5.90;1.00
17178;DHT22;8704;52.006;4.374;2024-02-23T05:15:59;5.20;1.00
17178;DHT22;8704;52.006;4.374;2024-02-23T05:18:28;4.60;1.00
17178;DHT22;8704;52.006;4.374;2024-02-23T05:20:56;5.00;1.00
17178;DHT22;8704;52.006;4.374;2024-02-23T05:23:24;5.20;92.40
17178;DHT22;8704;52.006;4.374;2024-02-23T05:25:52;5.30;99.90
17178;DHT22;8704;52.006;4.374;2024-02-23T05:28:20;5.20;99.90
17178;DHT22;8704;52.006;4.374;2024-02-23T05:30:48;5.30;99.90
17178;DHT22;8704;52.006;4.374;2024-02-23T05:33:16;4.80;99.90
17178;DHT22;8704;52.006;4.374;2024-02-23T05:35:48;5.30;99.90
17178;DHT22;8704;52.006;4.374;2024-02-23T05:38:17;5.50;99.90
17178;DHT22;8704;52.006;4.374;2024-02-23T05:40:45;5.00;1.00
17178;DHT22;8704;52.006;4.374;2024-02-23T05:43:15;5.30;1.00
17178;DHT22;8704;52.006;4.374;2024-02-23T05:45:43;5.40;1.00
17178;DHT22;8704;52.006;4.374;2024-02-23T05:48:12;5.40;1.00
17178;DHT22;8704;52.006;4.374;2024-02-23T05:50:40;5.70;99.90
17178;DHT22;8704;52.006;4.374;2024-02-23T05:53:09;5.40;99.90
17178;DHT22;8704;52.006;4.374;2024-02-23T05:55:37;5.40;99.90
17178;DHT22;8704;52.006;4.374;2024-02-23T05:58:06;5.30;99.90
17178;DHT22;8704;52.006;4.374;2024-02-23T06:00:34;5.40;99.90
17178;DHT22;8704;52.006;4.374;2024-02-23T06:03:02;4.70;99.90
17178;DHT22;8704;52.006;4.374;2024-02-23T06:05:30;5.50;99.90
17178;DHT22;8704;52.006;4.374;2024-02-23T06:07:58;5.50;99.90
17178;DHT22;8704;52.006;4.374;2024-02-23T06:10:29;5.50;99.90
17178;DHT22;8704;52.006;4.374;2024-02-23T06:12:57;5.50;1.00
17178;DHT22;8704;52.006;4.374;2024-02-23T06:15:29;5.80;99.90
17178;DHT22;8704;52.006;4.374;2024-02-23T06:17:57;5.90;99.90
17178;DHT22;8704;52.006;4.374;2024-02-23T06:20:25;5.50;99.90
17178;DHT22;8704;52.006;4.374;2024-02-23T06:22:53;5.60;99.90
17178;DHT22;8704;52.006;4.374;2024-02-23T06:25:21;5.50;99.90
17178;DHT22;8704;52.006;4.374;2024-02-23T06:27:50;5.50;99.90
17178;DHT22;8704;52.006;4.374;2024-02-23T06:30:18;5.00;99.90
17178;DHT22;8704;52.006;4.374;2024-02-23T06:32:47;5.60;99.90
17178;DHT22;8704;52.006;4.374;2024-02-23T06:35:15;5.60;99.90
17178;DHT22;8704;52.006;4.374;2024-02-23T06:37:44;5.50;99.90
17178;DHT22;8704;52.006;4.374;2024-02-23T06:40:12;5.50;92.80
17178;DHT22;8704;52.006;4.374;2024-02-23T06:42:40;5.60;34.20
17178;DHT22;8704;52.006;4.374;2024-02-23T06:45:10;5.60;88.30
17178;DHT22;8704;52.006;4.374;2024-02-23T06:47:38;5.40;42.50
17178;DHT22;8704;52.006;4.374;2024-02-23T06:50:07;5.60;1.00
17178;DHT22;8704;52.006;4.374;2024-02-23T06:52:36;5.60;1.00
17178;DHT22;8704;52.006;4.374;2024-02-23T06:55:05;5.70;1.00
17178;DHT22;8704;52.006;4.374;2024-02-23T06:57:33;5.60;1.00
17178;DHT22;8704;52.006;4.374;2024-02-23T07:00:04;5.60;1.00
17178;DHT22;8704;52.006;4.374;2024-02-23T07:02:36;5.60;1.00
17178;DHT22;8704;52.006;4.374;2024-02-23T07:05:04;4.70;1.00
17178;DHT22;8704;52.006;4.374;2024-02-23T07:07:34;5.60;1.00
17178;DHT22;8704;52.006;4.374;2024-02-23T07:10:03;6.00;1.00
17178;DHT22;8704;52.006;4.374;2024-02-23T07:12:31;6.00;1.00
17178;DHT22;8704;52.006;4.374;2024-02-23T07:14:59;5.60;1.00
17178;DHT22;8704;52.006;4.374;2024-02-23T07:17:27;5.60;1.00
17178;DHT22;8704;52.006;4.374;2024-02-23T07:19:57;5.80;1.00
17178;DHT22;8704;52.006;4.374;2024-02-23T07:22:32;5.60;1.00
17178;DHT22;8704;52.006;4.374;2024-02-23T07:25:00;5.60;1.00
17178;DHT22;8704;52.006;4.374;2024-02-23T07:27:30;5.50;1.00
17178;DHT22;8704;52.006;4.374;2024-02-23T07:29:58;5.60;38.90
17178;DHT22;8704;52.006;4.374;2024-02-23T07:32:26;5.50;99.90
17178;DHT22;8704;52.006;4.374;2024-02-23T07:34:58;5.40;99.90
17178;DHT22;8704;52.006;4.374;2024-02-23T07:37:26;5.40;99.90
17178;DHT22;8704;52.006;4.374;2024-02-23T07:39:54;5.40;1.00
17178;DHT22;8704;52.006;4.374;2024-02-23T07:42:22;5.40;1.00
17178;DHT22;8704;52.006;4.374;2024-02-23T07:44:50;5.20;99.90
17178;DHT22;8704;52.006;4.374;2024-02-23T07:47:18;6.00;99.90
17178;DHT22;8704;52.006;4.374;2024-02-23T07:49:46;5.20;1.00
17178;DHT22;8704;52.006;4.374;2024-02-23T07:52:16;5.20;99.90
17178;DHT22;8704;52.006;4.374;2024-02-23T07:54:44;5.20;1.00
17178;DHT22;8704;52.006;4.374;2024-02-23T07:57:12;5.20;1.00
17178;DHT22;8704;52.006;4.374;2024-02-23T07:59:43;6.70;1.00
17178;DHT22;8704;52.006;4.374;2024-02-23T08:02:11;5.00;99.90
17178;DHT22;8704;52.006;4.374;2024-02-23T08:04:40;5.10;99.90
17178;DHT22;8704;52.006;4.374;2024-02-23T08:07:09;5.00;99.90
17178;DHT22;8704;52.006;4.374;2024-02-23T08:09:38;5.20;99.90
17178;DHT22;8704;52.006;4.374;2024-02-23T08:12:07;5.30;99.90
17178;DHT22;8704;52.006;4.374;2024-02-23T08:14:36;5.20;1.00
17178;DHT22;8704;52.006;4.374;2024-02-23T08:17:04;5.50;1.00
17178;DHT22;8704;52.006;4.374;2024-02-23T08:19:32;6.50;1.00
17178;DHT22;8704;52.006;4.374;2024-02-23T08:22:00;5.30;1.00
17178;DHT22;8704;52.006;4.374;2024-02-23T08:24:28;5.40;1.00
17178;DHT22;8704;52.006;4.374;2024-02-23T08:26:57;5.30;1.00
17178;DHT22;8704;52.006;4.374;2024-02-23T08:29:26;5.20;1.00
17178;DHT22;8704;52.006;4.374;2024-02-23T08:31:54;5.20;1.00
17178;DHT22;8704;52.006;4.374;2024-02-23T08:34:22;5.50;1.00
17178;DHT22;8704;52.006;4.374;2024-02-23T08:36:51;5.30;1.00
17178;DHT22;8704;52.006;4.374;2024-02-23T08:39:19;5.40;1.00
17178;DHT22;8704;52.006;4.374;2024-02-23T08:41:49;6.50;1.00
17178;DHT22;8704;52.006;4.374;2024-02-23T08:44:19;5.00;99.90
17178;DHT22;8704;52.006;4.374;2024-02-23T08:46:47;5.20;99.90
17178;DHT22;8704;52.006;4.374;2024-02-23T08:49:15;5.40;99.90
17178;DHT22;8704;52.006;4.374;2024-02-23T08:51:44;5.20;99.90
17178;DHT22;8704;52.006;4.374;2024-02-23T08:54:12;5.30;99.90
17178;DHT22;8704;52.006;4.374;2024-02-23T08:56:40;5.30;99.90
17178;DHT22;8704;52.006;4.374;2024-02-23T08:59:09;5.10;87.90
17178;DHT22;8704;52.006;4.374;2024-02-23T09:01:39;5.30;1.00
17178;DHT22;8704;52.006;4.374;2024-02-23T09:04:07;5.20;98.40
17178;DHT22;8704;52.006;4.374;2024-02-23T09:06:35;5.80;99.90
17178;DHT22;8704;52.006;4.374;2024-02-23T09:09:05;5.80;52.20
17178;DHT22;8704;52.006;4.374;2024-02-23T09:11:34;4.90;99.90
17178;DHT22;8704;52.006;4.374;2024-02-23T09:14:03;5.40;1.00
17178;DHT22;8704;52.006;4.374;2024-02-23T09:16:31;5.80;99.90
17178;DHT22;8704;52.006;4.374;2024-02-23T09:19:01;5.50;1.00
17178;DHT22;8704;52.006;4.374;2024-02-23T09:21:29;5.60;99.90
17178;DHT22;8704;52.006;4.374;2024-02-23T09:23:57;5.60;1.00
17178;DHT22;8704;52.006;4.374;2024-02-23T09:26:25;6.30;99.90
17178;DHT22;8704;52.006;4.374;2024-02-23T09:28:53;5.80;1.00
17178;DHT22;8704;52.006;4.374;2024-02-23T09:31:21;5.70;1.00
17178;DHT22;8704;52.006;4.374;2024-02-23T09:33:50;5.70;1.00
17178;DHT22;8704;52.006;4.374;2024-02-23T09:36:19;5.90;1.00
17178;DHT22;8704;52.006;4.374;2024-02-23T09:38:47;6.00;1.00
17178;DHT22;8704;52.006;4.374;2024-02-23T09:41:20;6.00;1.00
17178;DHT22;8704;52.006;4.374;2024-02-23T09:43:49;6.00;99.90
17178;DHT22;8704;52.006;4.374;2024-02-23T09:46:18;6.30;99.90
17178;DHT22;8704;52.006;4.374;2024-02-23T09:48:48;6.00;99.90
17178;DHT22;8704;52.006;4.374;2024-02-23T09:51:19;6.20;1.00
17178;DHT22;8704;52.006;4.374;2024-02-23T09:53:49;6.30;1.00
17178;DHT22;8704;52.006;4.374;2024-02-23T09:56:18;6.50;1.00
17178;DHT22;8704;52.006;4.374;2024-02-23T09:58:49;6.20;1.00
17178;DHT22;8704;52.006;4.374;2024-02-23T10:01:27;6.40;1.00
17178;DHT22;8704;52.006;4.374;2024-02-23T10:03:56;6.60;1.00
17178;DHT22;8704;52.006;4.374;2024-02-23T10:06:27;6.40;1.00
17178;DHT22;8704;52.006;4.374;2024-02-23T10:08:55;6.50;1.00
17178;DHT22;8704;52.006;4.374;2024-02-23T10:11:24;6.50;1.00
17178;DHT22;8704;52.006;4.374;2024-02-23T10:13:53;6.80;99.90
17178;DHT22;8704;52.006;4.374;2024-02-23T10:16:22;7.00;99.90
17178;DHT22;8704;52.006;4.374;2024-02-23T10:18:50;6.80;99.90
17178;DHT22;8704;52.006;4.374;2024-02-23T10:21:18;6.80;99.90
17178;DHT22;8704;52.006;4.374;2024-02-23T10:23:48;6.80;99.90
17178;DHT22;8704;52.006;4.374;2024-02-23T10:26:18;7.00;99.90
17178;DHT22;8704;52.006;4.374;2024-02-23T10:28:49;6.90;99.90
17178;DHT22;8704;52.006;4.374;2024-02-23T10:31:18;6.90;99.90
17178;DHT22;8704;52.006;4.374;2024-02-23T10:33:46;7.10;99.90
17178;DHT22;8704;52.006;4.374;2024-02-23T10:36:18;7.00;1.00
17178;DHT22;8704;52.006;4.374;2024-02-23T10:38:47;7.20;40.90
17178;DHT22;8704;52.006;4.374;2024-02-23T10:41:17;7.10;1.00
17178;DHT22;8704;52.006;4.374;2024-02-23T10:43:47;7.20;1.00
17178;DHT22;8704;52.006;4.374;2024-02-23T10:46:16;7.40;1.00
17178;DHT22;8704;52.006;4.374;2024-02-23T10:48:45;7.40;1.00
17178;DHT22;8704;52.006;4.374;2024-02-23T10:51:14;7.60;1.00
17178;DHT22;8704;52.006;4.374;2024-02-23T10:53:48;7.40;1.00
17178;DHT22;8704;52.006;4.374;2024-02-23T10:56:17;7.50;1.00
17178;DHT22;8704;52.006;4.374;2024-02-23T10:58:46;7.60;1.00
17178;DHT22;8704;52.006;4.374;2024-02-23T11:01:14;7.50;1.00
17178;DHT22;8704;52.006;4.374;2024-02-23T11:03:44;7.70;1.00
17178;DHT22;8704;52.006;4.374;2024-02-23T11:06:16;7.50;1.00
17178;DHT22;8704;52.006;4.374;2024-02-23T11:08:49;7.50;1.00
17178;DHT22;8704;52.006;4.374;2024-02-23T11:11:19;7.60;1.00
17178;DHT22;8704;52.006;4.374;2024-02-23T11:13:47;7.40;1.00
17178;DHT22;8704;52.006;4.374;2024-02-23T11:16:22;7.60;1.00
17178;DHT22;8704;52.006;4.374;2024-02-23T11:19:03;7.60;1.00
17178;DHT22;8704;52.006;4.374;2024-02-23T11:21:35;8.70;1.00
17178;DHT22;8704;52.006;4.374;2024-02-23T11:24:06;7.50;1.00
17178;DHT22;8704;52.006;4.374;2024-02-23T11:26:37;7.60;1.00
17178;DHT22;8704;52.006;4.374;2024-02-23T11:29:11;7.80;1.00
17178;DHT22;8704;52.006;4.374;2024-02-23T11:31:44;7.90;1.00
17178;DHT22;8704;52.006;4.374;2024-02-23T11:34:13;7.60;1.00
17178;DHT22;8704;52.006;4.374;2024-02-23T11:36:51;7.70;1.00
17178;DHT22;8704;52.006;4.374;2024-02-23T11:39:20;7.80;1.00
17178;DHT22;8704;52.006;4.374;2024-02-23T11:41:49;7.80;1.00
17178;DHT22;8704;52.006;4.374;2024-02-23T11:44:18;8.10;1.00
17178;DHT22;8704;52.006;4.374;2024-02-23T11:46:46;8.00;1.00
17178;DHT22;8704;52.006;4.374;2024-02-23T11:49:15;8.10;1.00
17178;DHT22;8704;52.006;4.374;2024-02-23T11:51:43;8.10;1.00
17178;DHT22;8704;52.006;4.374;2024-02-23T11:54:12;8.50;1.00
17178;DHT22;8704;52.006;4.374;2024-02-23T11:56:42;8.00;1.00
17178;DHT22;8704;52.006;4.374;2024-02-23T11:59:10;8.30;1.00
17178;DHT22;8704;52.006;4.374;2024-02-23T12:01:38;8.70;1.00
17178;DHT22;8704;52.006;4.374;2024-02-23T12:04:07;8.80;1.00
17178;DHT22;8704;52.006;4.374;2024-02-23T12:06:35;9.20;1.00
17178;DHT22;8704;52.006;4.374;2024-02-23T12:09:03;8.50;1.00
17178;DHT22;8704;52.006;4.374;2024-02-23T12:11:32;8.90;1.00
17178;DHT22;8704;52.006;4.374;2024-02-23T12:14:02;8.90;1.00
17178;DHT22;8704;52.006;4.374;2024-02-23T12:16:35;9.20;99.90
17178;DHT22;8704;52.006;4.374;2024-02-23T12:19:03;8.80;99.90
17178;DHT22;8704;52.006;4.374;2024-02-23T12:21:34;8.50;99.90
17178;DHT22;8704;52.006;4.374;2024-02-23T12:24:04;8.40;99.90
17178;DHT22;8704;52.006;4.374;2024-02-23T12:26:34;9.10;99.90
17178;DHT22;8704;52.006;4.374;2024-02-23T12:29:05;9.00;99.90
17178;DHT22;8704;52.006;4.374;2024-02-23T12:31:33;9.50;99.90
17178;DHT22;8704;52.006;4.374;2024-02-23T12:34:01;9.10;99.90
17178;DHT22;8704;52.006;4.374;2024-02-23T12:36:30;9.60;99.90
17178;DHT22;8704;52.006;4.374;2024-02-23T12:39:02;9.80;99.90
17178;DHT22;8704;52.006;4.374;2024-02-23T12:41:30;9.40;99.90
17178;DHT22;8704;52.006;4.374;2024-02-23T12:43:58;9.60;99.90
17178;DHT22;8704;52.006;4.374;2024-02-23T12:46:28;9.60;99.90
17178;DHT22;8704;52.006;4.374;2024-02-23T12:48:56;9.60;99.90
17178;DHT22;8704;52.006;4.374;2024-02-23T12:51:25;9.70;99.90
17178;DHT22;8704;52.006;4.374;2024-02-23T12:53:53;9.60;99.90
17178;DHT22;8704;52.006;4.374;2024-02-23T12:56:22;9.60;99.90
17178;DHT22;8704;52.006;4.374;2024-02-23T12:58:52;9.70;99.90
17178;DHT22;8704;52.006;4.374;2024-02-23T13:01:21;9.40;99.90
17178;DHT22;8704;52.006;4.374;2024-02-23T13:03:50;9.80;99.90
17178;DHT22;8704;52.006;4.374;2024-02-23T13:06:19;9.50;99.90
17178;DHT22;8704;52.006;4.374;2024-02-23T13:08:47;9.90;99.90
17178;DHT22;8704;52.006;4.374;2024-02-23T13:11:15;10.30;99.90
17178;DHT22;8704;52.006;4.374;2024-02-23T13:13:43;9.50;99.90
17178;DHT22;8704;52.006;4.374;2024-02-23T13:16:11;10.00;99.90
17178;DHT22;8704;52.006;4.374;2024-02-23T13:18:42;9.00;99.90
17178;DHT22;8704;52.006;4.374;2024-02-23T13:21:12;9.30;99.90
17178;DHT22;8704;52.006;4.374;2024-02-23T13:23:40;9.50;99.90
17178;DHT22;8704;52.006;4.374;2024-02-23T13:26:10;9.20;99.90
17178;DHT22;8704;52.006;4.374;2024-02-23T13:28:41;9.30;99.90
17178;DHT22;8704;52.006;4.374;2024-02-23T13:31:09;9.60;99.90
17178;DHT22;8704;52.006;4.374;2024-02-23T13:33:38;9.10;97.70
17178;DHT22;8704;52.006;4.374;2024-02-23T13:36:06;9.90;99.90
17178;DHT22;8704;52.006;4.374;2024-02-23T13:38:36;9.30;99.90
17178;DHT22;8704;52.006;4.374;2024-02-23T13:41:06;9.30;99.90
17178;DHT22;8704;52.006;4.374;2024-02-23T13:43:34;9.60;99.90
17178;DHT22;8704;52.006;4.374;2024-02-23T13:46:03;9.20;89.10
17178;DHT22;8704;52.006;4.374;2024-02-23T13:48:31;9.40;99.90
17178;DHT22;8704;52.006;4.374;2024-02-23T13:50:59;9.60;99.90
17178;DHT22;8704;52.006;4.374;2024-02-23T13:53:30;9.90;99.90
17178;DHT22;8704;52.006;4.374;2024-02-23T13:56:01;9.80;99.90
17178;DHT22;8704;52.006;4.374;2024-02-23T13:58:29;9.60;99.90
17178;DHT22;8704;52.006;4.374;2024-02-23T14:00:57;9.20;99.90
17178;DHT22;8704;52.006;4.374;2024-02-23T14:03:25;9.50;99.90
17178;DHT22;8704;52.006;4.374;2024-02-23T14:05:54;9.40;99.90
17178;DHT22;8704;52.006;4.374;2024-02-23T14:08:22;9.20;99.90
17178;DHT22;8704;52.006;4.374;2024-02-23T14:10:50;9.20;99.90
17178;DHT22;8704;52.006;4.374;2024-02-23T14:13:19;9.30;99.90
17178;DHT22;8704;52.006;4.374;2024-02-23T14:15:47;8.90;99.90
17178;DHT22;8704;52.006;4.374;2024-02-23T14:18:15;9.40;99.90
17178;DHT22;8704;52.006;4.374;2024-02-23T14:20:43;9.20;99.90
17178;DHT22;8704;52.006;4.374;2024-02-23T14:23:12;8.90;88.40
17178;DHT22;8704;52.006;4.374;2024-02-23T14:25:40;10.00;99.90
17178;DHT22;8704;52.006;4.374;2024-02-23T14:28:08;9.20;69.30
17178;DHT22;8704;52.006;4.374;2024-02-23T14:30:38;8.70;80.40
17178;DHT22;8704;52.006;4.374;2024-02-23T14:33:07;9.20;99.90
17178;DHT22;8704;52.006;4.374;2024-02-23T14:35:35;9.40;99.90
17178;DHT22;8704;52.006;4.374;2024-02-23T14:38:03;8.80;74.20
17178;DHT22;8704;52.006;4.374;2024-02-23T14:40:32;9.40;70.30
17178;DHT22;8704;52.006;4.374;2024-02-23T14:43:00;8.80;87.90
17178;DHT22;8704;52.006;4.374;2024-02-23T14:45:28;8.90;96.90
17178;DHT22;8704;52.006;4.374;2024-02-23T14:47:57;9.00;81.80
17178;DHT22;8704;52.006;4.374;2024-02-23T14:50:26;8.80;87.00
17178;DHT22;8704;52.006;4.374;2024-02-23T14:52:54;8.80;72.10
17178;DHT22;8704;52.006;4.374;2024-02-23T14:55:23;8.40;87.20
17178;DHT22;8704;52.006;4.374;2024-02-23T14:57:51;8.60;99.90
17178;DHT22;8704;52.006;4.374;2024-02-23T15:00:19;8.80;99.90
17178;DHT22;8704;52.006;4.374;2024-02-23T15:02:47;8.70;99.90
17178;DHT22;8704;52.006;4.374;2024-02-23T15:05:17;8.70;99.90
17178;DHT22;8704;52.006;4.374;2024-02-23T15:07:46;9.30;94.00
17178;DHT22;8704;52.006;4.374;2024-02-23T15:10:14;8.60;94.80
17178;DHT22;8704;52.006;4.374;2024-02-23T15:12:42;8.60;95.90
17178;DHT22;8704;52.006;4.374;2024-02-23T15:15:10;9.10;99.90
17178;DHT22;8704;52.006;4.374;2024-02-23T15:17:38;9.00;99.90
17178;DHT22;8704;52.006;4.374;2024-02-23T15:20:09;8.70;99.90
17178;DHT22;8704;52.006;4.374;2024-02-23T15:22:39;8.70;99.90
17178;DHT22;8704;52.006;4.374;2024-02-23T15:25:09;9.00;99.90
17178;DHT22;8704;52.006;4.374;2024-02-23T15:27:37;8.90;99.90
17178;DHT22;8704;52.006;4.374;2024-02-23T15:30:07;8.60;99.90
17178;DHT22;8704;52.006;4.374;2024-02-23T15:32:36;8.70;99.90
17178;DHT22;8704;52.006;4.374;2024-02-23T15:35:05;8.80;99.90
17178;DHT22;8704;52.006;4.374;2024-02-23T15:37:34;8.60;99.90
17178;DHT22;8704;52.006;4.374;2024-02-23T15:40:04;8.70;99.90
17178;DHT22;8704;52.006;4.374;2024-02-23T15:42:32;8.60;99.90
17178;DHT22;8704;52.006;4.374;2024-02-23T15:45:02;8.50;99.90
17178;DHT22;8704;52.006;4.374;2024-02-23T15:47:31;8.60;99.90
17178;DHT22;8704;52.006;4.374;2024-02-23T15:49:59;7.60;99.90
17178;DHT22;8704;52.006;4.374;2024-02-23T15:52:48;8.60;99.90
17178;DHT22;8704;52.006;4.374;2024-02-23T15:55:17;8.80;99.90
17178;DHT22;8704;52.006;4.374;2024-02-23T15:57:45;8.60;99.90
17178;DHT22;8704;52.006;4.374;2024-02-23T16:00:14;8.90;99.90
17178;DHT22;8704;52.006;4.374;2024-02-23T16:02:42;8.70;99.90
17178;DHT22;8704;52.006;4.374;2024-02-23T16:05:10;8.60;99.90
17178;DHT22;8704;52.006;4.374;2024-02-23T16:07:38;8.30;99.90
17178;DHT22;8704;52.006;4.374;2024-02-23T16:10:07;9.10;99.90
17178;DHT22;8704;52.006;4.374;2024-02-23T16:12:40;8.60;99.90
17178;DHT22;8704;52.006;4.374;2024-02-23T16:15:09;9.40;99.90
17178;DHT22;8704;52.006;4.374;2024-02-23T16:17:37;8.40;99.90